Flight Track Log - Related Links

Times and Time Zones

All times are in EDT time to prevent confusion due to time zone crossing. See the CTL15 flight status page for this flight to view local times or setup timezone preferences in your user account.

Time Position Orientation Groundspeed Altitude Reporting Facility
EDT Latitude Longitude Course Direction KTS MPH feet Rate Location/Type
Thu 08:35:14 PM 39.6592 -84.1447 46° Northeast 168 193 2,300  Level Indianapolis Center
Thu 08:35:44 PM 39.6778 -84.1200 46° Northeast 171 197 2,700 791 Climbing Indianapolis Center
Thu 08:36:45 PM 39.7064 -84.0750 50° Northeast 162 186 3,500 769 Climbing Indianapolis Center
Thu 08:37:02 PM 39.7142 -84.0656 43° Northeast 163 188 3,700 885 Climbing Indianapolis Center
Thu 08:37:46 PM 39.7342 -84.0406 44° Northeast 147 169 4,400 871 Climbing Indianapolis Center
Thu 08:38:04 PM 39.7428 -84.0294 45° Northeast 151 174 4,600 700 Climbing Indianapolis Center
Thu 08:38:46 PM 39.7625 -84.0008 48° Northeast 146 168 5,100 689 Climbing Indianapolis Center
Thu 08:39:05 PM 39.7706 -83.9906 44° Northeast 146 168 5,300 590 Climbing Indianapolis Center
Thu 08:39:47 PM 39.7931 -83.9586 47° Northeast 155 178 5,700 393 Climbing Indianapolis Center
Thu 08:40:06 PM 39.8000 -83.9494 45° Northeast 149 171 5,700 492 Level Indianapolis Center
Thu 08:40:48 PM 39.8231 -83.9217 43° Northeast 156 180 6,200 484 Climbing Indianapolis Center
Thu 08:41:08 PM 39.8311 -83.9083 52° Northeast 154 177 6,200 492 Level Indianapolis Center
Thu 08:41:49 PM 39.8539 -83.8742 49° Northeast 170 196 6,700 689 Climbing Indianapolis Center
Thu 08:42:09 PM 39.8614 -83.8611 53° Northeast 161 185 6,900 400 Climbing Indianapolis Center
Thu 08:42:49 PM 39.8847 -83.8264 49° Northeast 171 197 7,100 194 Climbing Indianapolis Center
Thu 08:43:11 PM 39.8931 -83.8125 52° Northeast 168 193 7,100 98 Level Indianapolis Center
Thu 08:43:50 PM 39.9194 -83.7817 42° Northeast 178 205 7,200 -98 Climbing Indianapolis Center
Thu 08:44:12 PM 39.9289 -83.7672 50° Northeast 173 199 7,000 -98 Descending Indianapolis Center
Thu 08:44:51 PM 39.9567 -83.7319 44° Northeast 182 209 7,100 194 Climbing Indianapolis Center
Thu 08:45:14 PM 39.9656 -83.7192 48° Northeast 180 207 7,200 98 Climbing Indianapolis Center
Thu 08:45:52 PM 39.9897 -83.6817 50° Northeast 186 214 7,200 -98 Level Indianapolis Center
Thu 08:46:15 PM 39.9989 -83.6667 51° Northeast 183 211 7,100 -98 Descending Indianapolis Center
Thu 08:46:53 PM 40.0267 -83.6347 41° Northeast 186 214 7,100  Level Indianapolis Center
Thu 08:47:17 PM 40.0381 -83.6203 44° Northeast 185 213 7,100 -100 Level Indianapolis Center
Thu 08:47:53 PM 40.0661 -83.5850 44° Northeast 189 217 7,000  Descending Indianapolis Center
Thu 08:48:18 PM 40.0764 -83.5719 44° Northeast 187 215 7,100  Climbing Indianapolis Center
Thu 08:48:54 PM 40.1050 -83.5408 40° Northeast 188 216 7,000  Descending Indianapolis Center
Thu 08:49:19 PM 40.1150 -83.5247 51° Northeast 188 216 7,100 98 Climbing Indianapolis Center
Thu 08:49:55 PM 40.1400 -83.4906 46° Northeast 186 214 7,100 -97 Level Indianapolis Center
Thu 08:50:21 PM 40.1514 -83.4756 45° Northeast 186 214 7,000  Descending Indianapolis Center
Thu 08:50:56 PM 40.1769 -83.4431 44° Northeast 185 213 7,100 98 Climbing Indianapolis Center
Thu 08:51:22 PM 40.1886 -83.4281 44° Northeast 185 213 7,100  Level Indianapolis Center
Thu 08:51:57 PM 40.2119 -83.3928 49° Northeast 184 212 7,100 -97 Level Indianapolis Center
Thu 08:52:24 PM 40.2292 -83.3697 46° Northeast 184 212 7,000  Descending Indianapolis Center
Thu 08:52:57 PM 40.2489 -83.3428 46° Northeast 184 212 7,100 98 Climbing Indianapolis Center
Thu 08:53:25 PM 40.2653 -83.3222 44° Northeast 182 209 7,100  Level Indianapolis Center
Thu 08:54:26 PM 40.3022 -83.2747 44° Northeast 183 211 7,100  Level Indianapolis Center
Thu 08:55:28 PM 40.3361 -83.2256 48° Northeast 180 207 7,100  Level Indianapolis Center
Thu 08:56:29 PM 40.3717 -83.1792 45° Northeast 179 206 7,100 -49 Level Indianapolis Center
Thu 08:57:31 PM 40.4067 -83.1303 47° Northeast 181 208 7,000 -49 Descending Indianapolis Center
Thu 08:58:32 PM 40.4439 -83.0853 43° Northeast 180 207 7,000  Level Indianapolis Center
Thu 08:59:33 PM 40.4814 -83.0394 43° Northeast 182 209 7,000 -49 Level Indianapolis Center
Thu 09:00:35 PM 40.5175 -82.9922 45° Northeast 179 206 6,900 -49 Descending Indianapolis Center
Thu 09:01:36 PM 40.5475 -82.9392 53° Northeast 178 205 6,900 49 Level Indianapolis Center
Thu 09:02:37 PM 40.5764 -82.8819 56° Northeast 184 212 7,000  Climbing Indianapolis Center
Thu 09:03:39 PM 40.6047 -82.8281 55° Northeast 180 207 6,900 -49 Descending Indianapolis Center
Thu 09:04:40 PM 40.6319 -82.7731 57° Northeast 177 204 6,900 49 Level Indianapolis Center
Thu 09:05:41 PM 40.6608 -82.7186 55° Northeast 179 206 7,000  Climbing Indianapolis Center
Thu 09:06:29 PM 40.6836 -82.6778 54° Northeast 179 206 6,900  Descending Cleveland Center
Thu 09:07:29 PM 40.7161 -82.6211 53° Northeast 183 211 7,000  Climbing Cleveland Center
Thu 09:08:30 PM 40.7442 -82.5617 58° Northeast 189 217 6,900 -248 Descending Cleveland Center
Thu 09:09:30 PM 40.7786 -82.4997 54° Northeast 197 227 6,500 -298 Descending Cleveland Center
Thu 09:10:31 PM 40.8108 -82.4458 52° Northeast 194 223 6,300 -197 Descending Cleveland Center
Thu 09:11:32 PM 40.8389 -82.3836 59° Northeast 193 222 6,100 -198 Descending Cleveland Center
Thu 09:12:32 PM 40.8689 -82.3267 55° Northeast 188 216 5,900 -198 Descending Cleveland Center
Thu 09:13:33 PM 40.8989 -82.2697 55° Northeast 189 217 5,700 -197 Descending Cleveland Center
Thu 09:14:34 PM 40.9269 -82.2128 57° Northeast 189 217 5,500 -197 Descending Cleveland Center
Thu 09:15:35 PM 40.9569 -82.1531 56° Northeast 191 220 5,300 -209 Descending Cleveland Center
Thu 09:16:29 PM 40.9825 -82.0986 58° Northeast 192 221 5,100 -209 Descending Cleveland Center
Thu 09:17:30 PM 41.0147 -82.0389 54° Northeast 191 220 4,900 -49 Descending Cleveland Center
Thu 09:18:31 PM 41.0467 -81.9817 53° Northeast 186 214 5,000 49 Climbing Cleveland Center
Thu 09:19:32 PM 41.0764 -81.9272 54° Northeast 183 211 5,000  Level Cleveland Center
Thu 09:20:32 PM 41.1083 -81.8728 52° Northeast 186 214 5,000 -142 Level Cleveland Center
Thu 09:21:39 PM 41.1425 -81.8156 52° Northeast 187 215 4,700 -281 Descending Cleveland Center
Thu 09:22:40 PM 41.1806 -81.7556 50° Northeast 198 228 4,400 -397 Descending Cleveland Center
Thu 09:23:40 PM 41.2167 -81.7011 49° Northeast 196 226 3,900 -470 Descending Cleveland Center
Thu 09:24:35 PM 41.2483 -81.6519 49° Northeast 193 222 3,500 -443 Descending Cleveland Center
Thu 09:25:42 PM 41.2925 -81.6028 40° Northeast 194 223 3,000 -246 Descending Cleveland Center
Thu 09:26:37 PM 41.3364 -81.5814 20° North 180 207 3,000  Level Cleveland Center
Thu 09:27:37 PM 41.3806 -81.5628 18° North 175 201 3,000 -50 Level Cleveland Center
Thu 09:28:38 PM 41.4303 -81.5717 352° North 178 205 2,900 -443 Descending Cleveland Center
Thu 09:29:39 PM 41.4675 -81.6111 322° Northwest 195 224 2,100 -744 Descending Cleveland Center
Thu 09:30:39 PM 41.5044 -81.6700 310° West 176 203 1,400 -700 Descending Cleveland Center
Thu 09:32:00 PM 41.5167 -81.6667 338° Northwest  Level FlightAware
Thu 09:39:00 PM 41.5175 -81.6833 338° Northwest  Level Estimated

Login

Don't have an account? Register now (free) for customized features, flight alerts, and more!